Birmingham, AL (35201)

5:52 PM CDT on July 26, 2016 (GMT -0500)
UAB HHB | | Change Station

Elev 617 ft 33.50 °N, 86.81 °W | Updated 45 seconds ago

Scattered Clouds
Scattered Clouds
93.6 °F
Feels Like 103 °F
N
10.0
Wind Variable Wind from NW
Gusts 14.0 mph

Today
High -- | Low -- °F
--% Chance of Precip.
Yesterday
High -- | Low -- °F
Precip. -- in
Pressure 29.95 in
Visibility 10.0 miles
Clouds Few 6500 ft
Scattered Clouds 25000 ft
Heat Index 103 °F
Dew Point 73 °F
Humidity 51%
Rainfall 0.00 in
Snow Depth Not available.
5:55 AM 7:51 PM
Waning Gibbous, 50% visible
METAR KBHM 262153Z 11007KT 10SM FEW065 SCT250 34/20 A2998 RMK AO2 SLP140 T03390200
Pressure 29.95 in
Visibility 10.0 miles
Clouds Few 6500 ft
Scattered Clouds 25000 ft
Heat Index 103 °F
Dew Point 73 °F
Humidity 51%
Rainfall 0.00 in
Snow Depth Not available.
5:55 AM 7:51 PM
Waning Gibbous, 50% visible
METAR KBHM 262153Z 11007KT 10SM FEW065 SCT250 34/20 A2998 RMK AO2 SLP140 T03390200

10-Day Weather Forecast

Almanac

Astronomy

Jul. 26, 2016 Rise Set
Actual Time
Civil Twilight
Nautical Twilight
Astronomical Twilight
Moon
Length of Visible Light
Length of Day
Tomorrow will be .
, % of the Moon is Illuminated

Today's Extremes

State Highs State Lows

Community

WunderPhotos

Upload Photos

1,927,728 photos uploaded!

WunderBlog® & News

Nearby

Air Quality

  Air Quality AQ Index Pollutant
Not available.

Snow Depth

Station Depth Elevation

Earthquake Activity

City Distance Mag. Time & Date
Minimum magnitude displayed is 2.5.

Coastal Water Temperatures

Place Temperature

Stations

Nearby Weather Stations

Station Location Temp. Windchill Dew Point Humidity Wind Precip. Elev Updated Type
                   

Watches & Warnings

There are currently no watches in effect.